createdAt,value
2019-03-12T00:02:19.227Z,4.10
2019-03-12T00:04:47.607Z,5.20
2019-03-12T00:07:16.077Z,3.90
2019-03-12T00:09:44.592Z,5.03
2019-03-12T00:12:12.964Z,4.37
2019-03-12T00:14:41.334Z,3.73
2019-03-12T00:17:09.839Z,3.97
2019-03-12T00:19:38.196Z,3.53
2019-03-12T00:22:06.572Z,3.80
2019-03-12T00:24:34.999Z,3.37
2019-03-12T00:27:03.652Z,4.72
2019-03-12T00:29:32.018Z,3.80
2019-03-12T00:32:00.401Z,3.98
2019-03-12T00:34:28.771Z,3.20
2019-03-12T00:36:57.156Z,4.17
2019-03-12T00:39:25.765Z,4.07
2019-03-12T00:41:54.136Z,3.43
2019-03-12T00:44:22.503Z,3.00
2019-03-12T00:46:50.882Z,6.47
2019-03-12T00:49:19.271Z,5.20
2019-03-12T00:51:47.652Z,4.63
2019-03-12T00:54:16.021Z,6.40
2019-03-12T00:56:44.398Z,5.40
2019-03-12T00:59:12.776Z,4.17
2019-03-12T01:01:41.159Z,4.77
2019-03-12T01:04:09.556Z,5.37
2019-03-12T01:06:37.902Z,9.97
2019-03-12T01:09:08.306Z,6.50
2019-03-12T01:11:36.692Z,4.03
2019-03-12T01:14:05.129Z,4.93
2019-03-12T01:16:33.505Z,3.83
2019-03-12T01:19:01.880Z,3.98
2019-03-12T01:21:30.251Z,4.37
2019-03-12T01:23:58.636Z,6.17
2019-03-12T01:26:27.025Z,4.07
2019-03-12T01:28:56.115Z,8.73
2019-03-12T01:31:24.493Z,8.57
2019-03-12T01:33:52.871Z,9.83
2019-03-12T01:36:21.263Z,8.20
2019-03-12T01:38:49.645Z,9.60
2019-03-12T01:41:18.022Z,11.07
2019-03-12T01:43:46.422Z,8.87
2019-03-12T01:46:14.774Z,5.80
2019-03-12T01:48:43.161Z,10.20
2019-03-12T01:51:11.535Z,9.08
2019-03-12T01:53:39.920Z,8.97
2019-03-12T01:56:08.291Z,8.53
2019-03-12T01:58:36.676Z,8.70
2019-03-12T02:01:05.306Z,7.07
2019-03-12T02:03:33.685Z,9.67
2019-03-12T02:06:02.130Z,9.50
2019-03-12T02:08:30.524Z,11.13
2019-03-12T02:10:58.990Z,9.30
2019-03-12T02:13:27.371Z,5.23
2019-03-12T02:15:56.510Z,10.67
2019-03-12T02:18:24.881Z,8.43
2019-03-12T02:20:53.256Z,9.70
2019-03-12T02:23:21.631Z,8.13
2019-03-12T02:25:49.993Z,7.70
2019-03-12T02:28:18.367Z,6.60
2019-03-12T02:30:46.755Z,5.73
2019-03-12T02:33:15.141Z,11.70
2019-03-12T02:35:43.513Z,5.77
2019-03-12T02:38:11.978Z,6.47
2019-03-12T02:40:40.372Z,4.78
2019-03-12T02:43:08.738Z,6.20
2019-03-12T02:45:37.099Z,9.80
2019-03-12T02:48:05.492Z,4.23
2019-03-12T02:50:34.040Z,13.70
2019-03-12T02:53:02.408Z,7.53
2019-03-12T02:55:30.822Z,8.63
2019-03-12T02:57:59.195Z,7.57
2019-03-12T03:00:27.567Z,8.03
2019-03-12T03:02:56.763Z,5.97
2019-03-12T03:05:25.221Z,6.23
2019-03-12T03:07:55.357Z,10.23
2019-03-12T03:10:23.967Z,8.90
2019-03-12T03:12:52.339Z,4.83
2019-03-12T03:15:45.377Z,6.50
2019-03-12T03:18:13.777Z,6.53
2019-03-12T03:20:42.305Z,6.20
2019-03-12T03:23:10.670Z,6.53
2019-03-12T03:25:39.048Z,5.10
2019-03-12T03:28:07.412Z,6.50
2019-03-12T03:30:35.862Z,7.10
2019-03-12T03:33:04.309Z,3.35
2019-03-12T03:35:32.684Z,6.08
2019-03-12T03:38:01.049Z,3.73
2019-03-12T03:40:29.442Z,8.07
2019-03-12T03:42:57.818Z,4.30
2019-03-12T03:45:26.176Z,5.23
2019-03-12T03:47:54.548Z,4.07
2019-03-12T03:50:22.953Z,4.87
2019-03-12T03:52:51.299Z,5.70
2019-03-12T03:55:21.217Z,4.97
2019-03-12T03:57:49.653Z,4.03
2019-03-12T04:00:24.900Z,4.53
2019-03-12T04:02:53.328Z,4.47
2019-03-12T04:05:21.971Z,3.53
2019-03-12T04:07:50.378Z,4.17
2019-03-12T04:10:18.755Z,8.00
2019-03-12T04:12:47.095Z,5.50
2019-03-12T04:15:17.106Z,5.60
2019-03-12T04:17:45.549Z,4.57
2019-03-12T04:20:18.721Z,3.43
2019-03-12T04:22:47.131Z,4.30
2019-03-12T04:25:15.652Z,3.00
2019-03-12T04:27:44.053Z,4.97
2019-03-12T04:30:15.002Z,6.90
2019-03-12T04:32:43.443Z,4.30
2019-03-12T04:35:34.491Z,4.90
2019-03-12T04:38:02.853Z,5.70
2019-03-12T04:40:31.238Z,5.73
2019-03-12T04:42:59.608Z,3.67
2019-03-12T04:45:27.981Z,5.00
2019-03-12T04:47:56.344Z,2.90
2019-03-12T04:50:24.722Z,5.03
2019-03-12T04:52:53.162Z,3.70
2019-03-12T04:55:21.536Z,6.20
2019-03-12T04:57:49.907Z,5.43
2019-03-12T05:00:19.433Z,3.50
2019-03-12T05:02:47.793Z,2.37
2019-03-12T05:05:16.275Z,3.97
2019-03-12T05:07:44.781Z,4.25
2019-03-12T05:10:15.729Z,4.93
2019-03-12T05:12:44.114Z,2.90
2019-03-12T05:15:15.392Z,4.87
2019-03-12T05:17:44.582Z,3.90
2019-03-12T05:20:14.489Z,3.30
2019-03-12T05:22:42.947Z,5.37
2019-03-12T05:25:15.902Z,4.03
2019-03-12T05:27:44.304Z,2.23
2019-03-12T05:30:17.346Z,2.80
2019-03-12T05:32:46.158Z,6.07
2019-03-12T05:35:14.706Z,4.47
2019-03-12T05:37:43.309Z,1.82
2019-03-12T05:40:15.753Z,3.80
2019-03-12T05:42:44.700Z,4.10
2019-03-12T05:45:16.895Z,3.87
2019-03-12T05:47:45.271Z,4.90
2019-03-12T05:50:14.977Z,4.22
2019-03-12T05:52:43.416Z,4.03
2019-03-12T05:55:14.273Z,2.65
2019-03-12T05:57:42.736Z,4.07
2019-03-12T06:00:20.398Z,2.90
2019-03-12T06:02:48.812Z,3.57
2019-03-12T06:05:17.179Z,2.83
2019-03-12T06:07:45.556Z,3.83
2019-03-12T06:10:15.058Z,5.60
2019-03-12T06:12:44.225Z,4.10
2019-03-12T06:15:16.426Z,5.12
2019-03-12T06:17:44.957Z,2.50
2019-03-12T06:20:16.945Z,2.67
2019-03-12T06:22:45.325Z,3.05
2019-03-12T06:25:14.440Z,2.50
2019-03-12T06:27:42.990Z,3.10
2019-03-12T06:30:14.336Z,3.33
2019-03-12T06:32:49.874Z,1.87
2019-03-12T06:35:34.870Z,2.20
2019-03-12T06:38:04.895Z,3.80
2019-03-12T06:40:34.902Z,2.97
2019-03-12T06:43:10.788Z,3.75
2019-03-12T06:45:43.587Z,3.23
2019-03-12T06:48:25.624Z,4.30
2019-03-12T06:51:01.381Z,2.50
2019-03-12T06:53:47.817Z,2.60
2019-03-12T06:56:33.156Z,2.33
2019-03-12T06:59:03.179Z,3.27
2019-03-12T07:01:33.197Z,2.83
2019-03-12T07:04:06.193Z,3.10
2019-03-12T07:06:38.652Z,3.07
2019-03-12T07:09:12.569Z,4.08
2019-03-12T07:11:42.586Z,2.30
2019-03-12T07:14:12.607Z,3.62
2019-03-12T07:16:54.662Z,5.50
2019-03-12T07:19:41.153Z,1.90
2019-03-12T07:22:22.664Z,3.15
2019-03-12T07:25:01.643Z,2.90
2019-03-12T07:27:31.657Z,4.23
2019-03-12T07:30:07.576Z,2.70
2019-03-12T07:32:46.393Z,8.10
2019-03-12T07:35:32.652Z,2.17
2019-03-12T07:38:02.672Z,4.13
2019-03-12T07:40:41.690Z,2.50
2019-03-12T07:43:11.712Z,2.90
2019-03-12T07:45:50.636Z,4.70
2019-03-12T07:48:35.962Z,2.23
2019-03-12T07:51:17.827Z,7.13
2019-03-12T07:53:59.353Z,3.50
2019-03-12T07:56:28.032Z,4.90
2019-03-12T07:58:58.088Z,4.20
2019-03-12T08:01:30.851Z,2.63
2019-03-12T08:04:12.895Z,4.47
2019-03-12T08:06:58.928Z,4.97
2019-03-12T08:09:28.979Z,3.03
2019-03-12T08:12:01.702Z,4.23
2019-03-12T08:14:31.911Z,3.10
2019-03-12T08:17:17.191Z,2.17
2019-03-12T08:20:02.471Z,3.20
2019-03-12T08:22:32.505Z,3.47
2019-03-12T08:25:11.455Z,2.77
2019-03-12T08:27:41.513Z,3.27
2019-03-12T08:30:18.546Z,2.73
2019-03-12T08:32:48.576Z,2.60
2019-03-12T08:35:18.632Z,1.50
2019-03-12T08:37:48.662Z,3.30
2019-03-12T08:40:18.693Z,2.80
2019-03-12T08:42:55.119Z,2.50
2019-03-12T08:45:25.142Z,1.70
2019-03-12T08:48:12.783Z,2.30
2019-03-12T08:50:59.327Z,3.47
2019-03-12T08:53:29.370Z,3.93
2019-03-12T08:56:17.473Z,2.10
2019-03-12T08:59:03.479Z,6.22
2019-03-12T09:01:50.382Z,2.93
2019-03-12T09:04:20.410Z,2.57
2019-03-12T09:07:06.822Z,2.93
2019-03-12T09:09:39.793Z,2.73
2019-03-12T09:12:15.793Z,3.25
2019-03-12T09:14:45.817Z,6.47
2019-03-12T09:17:15.877Z,3.13
2019-03-12T09:20:01.649Z,5.80
2019-03-12T09:22:40.426Z,7.13
2019-03-12T09:25:12.131Z,3.02
2019-03-12T09:28:33.374Z,3.50
2019-03-12T09:31:19.814Z,1.90
2019-03-12T09:33:52.746Z,5.07
2019-03-12T09:36:22.802Z,4.03
2019-03-12T09:38:52.868Z,4.40
2019-03-12T09:41:37.918Z,4.27
2019-03-12T09:44:24.240Z,3.00
2019-03-12T09:46:57.462Z,3.43
2019-03-12T09:49:27.877Z,3.97
2019-03-12T09:51:58.001Z,5.27
2019-03-12T09:54:34.244Z,3.90
2019-03-12T09:57:04.321Z,3.00
2019-03-12T09:59:50.461Z,4.00
2019-03-12T10:02:38.297Z,2.83
2019-03-12T10:05:12.264Z,3.70
2019-03-12T10:07:45.049Z,4.10
2019-03-12T10:10:20.866Z,3.30
2019-03-12T10:13:08.985Z,2.07
2019-03-12T10:15:44.955Z,6.05
2019-03-12T10:18:23.497Z,2.87
2019-03-12T10:20:53.540Z,3.60
2019-03-12T10:23:26.365Z,7.43
2019-03-12T10:25:56.401Z,3.70
2019-03-12T10:28:32.107Z,2.83
2019-03-12T10:31:07.543Z,4.40
2019-03-12T10:33:40.211Z,2.37
2019-03-12T10:36:10.437Z,6.50
2019-03-12T10:39:22.466Z,4.90
2019-03-12T10:41:55.333Z,5.77
2019-03-12T10:44:31.089Z,2.50
2019-03-12T10:47:01.144Z,2.57
2019-03-12T10:49:37.308Z,3.13
2019-03-12T10:52:00.718Z,2.93
2019-03-12T10:54:29.124Z,2.70
2019-03-12T10:56:57.529Z,4.97
2019-03-12T10:59:26.025Z,3.57
2019-03-12T11:01:54.396Z,4.17
2019-03-12T11:04:22.786Z,3.50
2019-03-12T11:06:51.165Z,3.03
2019-03-12T11:09:20.112Z,2.97
2019-03-12T11:11:48.859Z,3.63
2019-03-12T11:14:17.248Z,5.60
2019-03-12T11:16:45.649Z,3.37
2019-03-12T11:19:14.109Z,6.00
2019-03-12T11:21:42.596Z,3.13
2019-03-12T11:24:11.003Z,3.50
2019-03-12T11:26:39.388Z,2.60
2019-03-12T11:29:07.859Z,2.73
2019-03-12T11:31:36.267Z,3.27
2019-03-12T11:34:04.686Z,6.00
2019-03-12T11:36:33.118Z,3.93
2019-03-12T11:39:01.588Z,4.53
2019-03-12T11:41:30.030Z,2.47
2019-03-12T11:43:58.447Z,4.40
2019-03-12T11:46:26.862Z,4.20
2019-03-12T11:48:55.350Z,2.87
2019-03-12T11:51:23.752Z,6.97
2019-03-12T11:53:52.158Z,6.03
2019-03-12T11:56:20.636Z,6.30
2019-03-12T11:58:49.029Z,3.90
2019-03-12T12:01:17.448Z,6.53
2019-03-12T12:03:46.027Z,7.70
2019-03-12T12:06:14.501Z,3.20
2019-03-12T12:08:42.988Z,4.13
2019-03-12T12:11:11.390Z,2.10
2019-03-12T12:13:39.920Z,4.93
2019-03-12T12:16:08.486Z,4.10
2019-03-12T12:18:36.861Z,2.20
2019-03-12T12:21:05.266Z,3.03
2019-03-12T12:23:33.665Z,2.93
2019-03-12T12:26:02.064Z,3.40
2019-03-12T12:28:30.450Z,4.87
2019-03-12T12:30:58.925Z,3.50
2019-03-12T12:33:27.519Z,5.90
2019-03-12T12:35:56.019Z,3.30
2019-03-12T12:38:24.465Z,3.00
2019-03-12T12:40:52.970Z,4.97
2019-03-12T12:43:21.412Z,7.87
2019-03-12T12:45:49.833Z,5.83
2019-03-12T12:48:18.218Z,5.23
2019-03-12T12:50:46.811Z,2.73
2019-03-12T12:53:15.182Z,2.50
2019-03-12T12:55:43.672Z,2.40
2019-03-12T12:58:12.037Z,4.20
2019-03-12T13:00:40.577Z,3.30
2019-03-12T13:03:09.078Z,3.73
2019-03-12T13:05:37.455Z,5.07
2019-03-12T13:08:05.818Z,2.20
2019-03-12T13:10:35.167Z,3.43
2019-03-12T13:13:03.604Z,2.60
2019-03-12T13:15:32.010Z,3.43
2019-03-12T13:18:00.375Z,3.83
2019-03-12T13:20:28.823Z,5.60
2019-03-12T13:22:57.256Z,5.13
2019-03-12T13:25:25.643Z,4.37
2019-03-12T13:27:54.008Z,3.47
2019-03-12T13:30:23.528Z,4.50
2019-03-12T13:32:52.122Z,5.77
2019-03-12T13:35:20.788Z,2.77
2019-03-12T13:37:49.603Z,3.35
2019-03-12T13:40:26.623Z,3.17
2019-03-12T13:42:55.236Z,2.90
2019-03-12T13:45:29.143Z,10.83
2019-03-12T13:47:57.643Z,2.37
2019-03-12T13:50:26.261Z,5.10
2019-03-12T13:52:54.810Z,4.07
2019-03-12T13:55:23.344Z,2.43
2019-03-12T13:57:51.846Z,4.53
2019-03-12T14:00:27.927Z,4.30
2019-03-12T14:02:56.376Z,2.57
2019-03-12T14:05:24.821Z,4.90
2019-03-12T14:07:53.257Z,3.13
2019-03-12T14:10:25.406Z,4.90
2019-03-12T14:12:54.625Z,2.60
2019-03-12T14:15:38.106Z,3.30
2019-03-12T14:18:06.927Z,6.93
2019-03-12T14:20:49.780Z,4.33
2019-03-12T14:23:24.287Z,3.13
2019-03-12T14:25:52.871Z,2.33
2019-03-12T14:28:21.314Z,2.70
2019-03-12T14:30:49.768Z,10.60
2019-03-12T14:33:18.369Z,2.77
2019-03-12T14:35:51.931Z,3.08
2019-03-12T14:38:17.816Z,5.67
2019-03-12T14:40:46.424Z,3.57
2019-03-12T14:43:14.805Z,4.10
2019-03-12T14:45:47.797Z,2.47
2019-03-12T14:48:40.003Z,5.03
2019-03-12T14:51:28.234Z,2.40
2019-03-12T14:54:02.225Z,7.63
2019-03-12T14:56:31.733Z,2.50
2019-03-12T14:59:00.259Z,27.20
2019-03-12T15:01:28.768Z,143.60
2019-03-12T15:03:57.242Z,105.83
2019-03-12T15:06:26.927Z,23.80
2019-03-12T15:08:55.348Z,134.73
2019-03-12T15:11:23.759Z,126.53
2019-03-12T15:13:52.177Z,88.03
2019-03-12T15:16:20.587Z,88.67
2019-03-12T15:18:51.864Z,84.85
2019-03-12T15:21:19.267Z,77.97
2019-03-12T15:23:47.773Z,66.40
2019-03-12T15:26:16.151Z,70.53
2019-03-12T15:28:44.550Z,67.37
2019-03-12T15:31:12.943Z,56.67
2019-03-12T15:33:41.327Z,88.03
2019-03-12T15:36:09.865Z,115.82
2019-03-12T15:38:38.386Z,181.73
2019-03-12T15:41:06.910Z,319.60
2019-03-12T15:43:35.372Z,351.73
2019-03-12T15:46:03.763Z,407.93
2019-03-12T15:48:32.154Z,403.83
2019-03-12T15:51:00.801Z,377.57
2019-03-12T15:53:29.317Z,372.20
2019-03-12T15:55:58.919Z,359.47
2019-03-12T15:58:27.362Z,344.50
2019-03-12T16:00:55.759Z,359.77
2019-03-12T16:03:24.218Z,349.37
2019-03-12T16:05:52.795Z,330.23
2019-03-12T16:08:21.192Z,343.17
2019-03-12T16:10:58.088Z,318.73
2019-03-12T16:13:20.547Z,309.13
2019-03-12T16:15:48.947Z,310.65
2019-03-12T16:18:17.330Z,288.37
2019-03-12T16:20:45.729Z,266.70
2019-03-12T16:23:14.112Z,260.93
2019-03-12T16:25:42.507Z,227.57
2019-03-12T16:28:10.882Z,233.13
2019-03-12T16:30:39.267Z,213.60
2019-03-12T16:33:07.809Z,221.63
2019-03-12T16:35:36.339Z,218.87
2019-03-12T16:38:07.012Z,206.57
2019-03-12T16:40:34.978Z,211.27
2019-03-12T16:43:03.901Z,192.67
2019-03-12T16:45:32.309Z,167.50
2019-03-12T16:48:00.764Z,173.13
2019-03-12T16:50:29.313Z,171.93
2019-03-12T16:52:57.700Z,154.97
2019-03-12T16:55:26.086Z,147.60
2019-03-12T16:57:54.531Z,142.10
2019-03-12T17:00:23.263Z,142.90
2019-03-12T17:02:51.642Z,149.27
2019-03-12T17:05:20.638Z,142.97
2019-03-12T17:07:49.092Z,125.90
2019-03-12T17:10:19.135Z,132.57
2019-03-12T17:12:47.506Z,128.47
2019-03-12T17:15:18.956Z,111.68
2019-03-12T17:17:47.412Z,120.40
2019-03-12T17:20:16.540Z,114.53
2019-03-12T17:22:44.986Z,111.07
2019-03-12T17:25:13.976Z,110.50
2019-03-12T17:27:42.543Z,107.30
2019-03-12T17:30:22.188Z,104.67
2019-03-12T17:32:50.568Z,101.00
2019-03-12T17:35:31.052Z,85.07
2019-03-12T17:37:59.435Z,87.70
2019-03-12T17:40:27.811Z,85.67
2019-03-12T17:42:56.184Z,82.33
2019-03-12T17:45:24.575Z,86.70
2019-03-12T17:47:52.962Z,86.53
2019-03-12T17:50:21.551Z,89.40
2019-03-12T17:52:50.013Z,86.80
2019-03-12T17:55:18.385Z,82.23
2019-03-12T17:57:46.767Z,79.57
2019-03-12T18:00:28.191Z,76.97
2019-03-12T18:02:56.515Z,73.57
2019-03-12T18:05:24.888Z,70.00
2019-03-12T18:07:53.342Z,70.00
2019-03-12T18:10:21.714Z,64.83
2019-03-12T18:12:50.162Z,68.57
2019-03-12T18:15:20.033Z,63.40
2019-03-12T18:17:48.898Z,64.77
2019-03-12T18:20:24.423Z,65.12
2019-03-12T18:22:52.887Z,58.83
2019-03-12T18:25:44.431Z,58.13
2019-03-12T18:28:12.816Z,59.10
2019-03-12T18:30:41.332Z,58.70
2019-03-12T18:33:09.717Z,54.43
2019-03-12T18:35:38.159Z,54.77
2019-03-12T18:38:06.554Z,49.57
2019-03-12T18:40:35.022Z,56.33
2019-03-12T18:43:03.589Z,44.53
2019-03-12T18:45:34.047Z,61.03
2019-03-12T18:48:02.433Z,49.40
2019-03-12T18:50:30.953Z,54.03
2019-03-12T18:52:59.581Z,47.23
2019-03-12T18:55:38.408Z,50.23
2019-03-12T18:58:07.542Z,51.40
2019-03-12T19:00:37.266Z,44.67
2019-03-12T19:03:05.820Z,42.13
2019-03-12T19:05:35.172Z,47.50
2019-03-12T19:08:03.637Z,47.33
2019-03-12T19:10:32.019Z,41.50
2019-03-12T19:13:00.540Z,37.90
2019-03-12T19:15:28.989Z,50.50
2019-03-12T19:17:57.720Z,37.90
2019-03-12T19:20:26.171Z,43.87
2019-03-12T19:22:54.624Z,41.23
2019-03-12T19:25:40.961Z,37.37
2019-03-12T19:28:09.351Z,37.00
2019-03-12T19:30:37.920Z,39.00
2019-03-12T19:33:18.132Z,40.77
2019-03-12T19:35:46.536Z,39.30
2019-03-12T19:38:15.107Z,37.80
2019-03-12T19:40:45.583Z,40.50
2019-03-12T19:43:14.045Z,40.27
2019-03-12T19:45:42.434Z,42.10
2019-03-12T19:48:10.814Z,39.67
2019-03-12T19:50:39.207Z,35.30
2019-03-12T19:53:07.673Z,36.33
2019-03-12T19:55:41.632Z,36.23
2019-03-12T19:58:10.116Z,37.17
2019-03-12T20:00:39.511Z,30.57
2019-03-12T20:03:12.038Z,37.53
2019-03-12T20:05:38.115Z,32.27
2019-03-12T20:08:06.771Z,37.90
2019-03-12T20:10:53.682Z,31.00
2019-03-12T20:13:47.604Z,37.23
2019-03-12T20:16:19.051Z,30.10
2019-03-12T20:19:05.705Z,34.80
2019-03-12T20:21:52.391Z,33.07
2019-03-12T20:24:57.497Z,35.80
2019-03-12T20:28:03.442Z,36.57
2019-03-12T20:31:08.598Z,32.63
2019-03-12T20:34:02.821Z,39.53
2019-03-12T20:37:08.088Z,29.70
2019-03-12T20:40:13.066Z,31.93
2019-03-12T20:43:02.686Z,31.47
2019-03-12T20:45:55.430Z,30.80
2019-03-12T20:49:10.781Z,29.03
2019-03-12T20:52:07.954Z,31.30
2019-03-12T20:55:07.094Z,31.13
2019-03-12T20:57:55.341Z,25.40
2019-03-12T21:00:52.517Z,28.75
2019-03-12T21:04:00.836Z,27.17
2019-03-12T21:06:53.029Z,26.67
2019-03-12T21:09:58.141Z,24.27
2019-03-12T21:12:38.701Z,27.07
2019-03-12T21:15:21.857Z,26.80
2019-03-12T21:18:09.831Z,25.50
2019-03-12T21:20:57.548Z,24.73
2019-03-12T21:23:31.767Z,27.77
2019-03-12T21:26:20.697Z,23.03
2019-03-12T21:29:04.398Z,26.80
2019-03-12T21:31:32.786Z,22.50
2019-03-12T21:34:01.165Z,26.83
2019-03-12T21:36:31.118Z,21.43
2019-03-12T21:38:59.740Z,23.50
2019-03-12T21:41:28.257Z,24.37
2019-03-12T21:43:56.627Z,19.60
2019-03-12T21:46:25.144Z,26.83
2019-03-12T21:48:53.517Z,20.50
2019-03-12T21:51:21.908Z,22.13
2019-03-12T21:53:50.289Z,19.80
2019-03-12T21:56:18.674Z,21.37
2019-03-12T21:58:47.057Z,21.30
2019-03-12T22:01:15.441Z,20.60
2019-03-12T22:03:43.832Z,19.12
2019-03-12T22:06:12.206Z,18.93
2019-03-12T22:08:40.594Z,19.33
2019-03-12T22:11:08.978Z,20.37
2019-03-12T22:13:37.369Z,19.07
2019-03-12T22:16:05.814Z,19.70
2019-03-12T22:18:34.207Z,17.73
2019-03-12T22:21:02.598Z,19.60
2019-03-12T22:23:35.301Z,16.03
2019-03-12T22:26:03.673Z,18.43
2019-03-12T22:28:32.063Z,17.00
2019-03-12T22:31:00.435Z,16.30
2019-03-12T22:33:28.809Z,21.30
2019-03-12T22:35:57.185Z,17.00
2019-03-12T22:38:25.564Z,18.37
2019-03-12T22:40:53.940Z,16.93
2019-03-12T22:43:22.314Z,16.87
2019-03-12T22:45:50.683Z,16.77
2019-03-12T22:48:19.062Z,13.97
2019-03-12T22:50:47.431Z,13.23
2019-03-12T22:53:15.816Z,14.95
2019-03-12T22:55:44.194Z,15.57
2019-03-12T22:58:12.578Z,13.60
2019-03-12T23:00:41.586Z,14.30
2019-03-12T23:03:09.973Z,13.27
2019-03-12T23:05:38.350Z,14.77
2019-03-12T23:08:07.677Z,16.17
2019-03-12T23:10:36.191Z,14.80
2019-03-12T23:13:04.562Z,12.30
2019-03-12T23:15:33.293Z,15.43
2019-03-12T23:18:01.664Z,12.10
2019-03-12T23:20:30.037Z,13.03
2019-03-12T23:22:58.407Z,10.30
2019-03-12T23:25:26.794Z,11.37
2019-03-12T23:27:55.163Z,14.03
2019-03-12T23:30:24.662Z,13.57
2019-03-12T23:32:53.666Z,14.73
2019-03-12T23:35:22.061Z,10.20
2019-03-12T23:37:50.434Z,11.70
2019-03-12T23:40:19.350Z,10.53
2019-03-12T23:42:47.725Z,12.17
2019-03-12T23:45:16.876Z,11.20
2019-03-12T23:47:45.864Z,11.03
2019-03-12T23:50:16.918Z,10.33
2019-03-12T23:52:45.729Z,12.70
2019-03-12T23:55:15.848Z,9.50
2019-03-12T23:57:44.449Z,9.70
